Time;durP1;ratioP1;P1;durP2;ratioP2;P2;SDS_P1;SDS_P2;PMS_P1;PMS_P2;Temp;Humidity;BMP_temperature;BMP_pressure;BME280_temperature;BME280_humidity;BME280_pressure;Samples;Min_cycle;Max_cycle;Signal;HPM_P1;HPM_P2
2023/11/13 00:00:11;;;;;;;11.55;7.68;;;7.30;99.90;;;;;;5099954;28;20085;-90
2023/11/13 00:02:38;;;;;;;11.77;8.02;;;7.20;99.90;;;;;;5099560;28;20065;-89
2023/11/13 00:05:04;;;;;;;10.40;8.05;;;7.20;99.90;;;;;;5083289;28;20421;-89
2023/11/13 00:07:30;;;;;;;11.32;7.70;;;7.20;99.90;;;;;;5079439;28;20043;-89
2023/11/13 00:09:56;;;;;;;9.95;8.00;;;7.20;99.90;;;;;;5088950;28;20028;-89
2023/11/13 00:12:22;;;;;;;12.80;8.25;;;7.20;99.90;;;;;;5081657;28;20028;-88
2023/11/13 00:14:47;;;;;;;11.38;7.85;;;7.20;99.90;;;;;;5086048;28;20410;-89
2023/11/13 00:17:13;;;;;;;10.98;8.23;;;7.20;99.90;;;;;;5070770;28;20123;-89
2023/11/13 00:19:43;;;;;;;12.93;8.55;;;7.20;99.90;;;;;;5079832;28;20032;-89
2023/11/13 00:22:08;;;;;;;11.35;7.75;;;7.20;99.90;;;;;;5106499;28;20013;-88
2023/11/13 00:24:34;;;;;;;12.13;7.85;;;7.10;99.90;;;;;;5110138;28;20008;-88
2023/11/13 00:27:00;;;;;;;11.20;7.60;;;7.10;99.90;;;;;;5111992;28;20528;-88
2023/11/13 00:29:25;;;;;;;10.18;7.72;;;7.10;99.90;;;;;;5119861;28;20024;-88
2023/11/13 00:31:51;;;;;;;9.18;8.15;;;7.10;99.90;;;;;;5100667;28;20024;-89
2023/11/13 00:34:17;;;;;;;10.02;7.80;;;7.10;99.90;;;;;;5079712;28;20028;-90
2023/11/13 00:36:43;;;;;;;11.38;7.25;;;7.00;99.90;;;;;;5083861;28;20050;-89
2023/11/13 00:39:12;;;;;;;9.05;7.10;;;7.00;99.90;;;;;;5067615;28;20118;-89
2023/11/13 00:41:40;;;;;;;11.98;8.07;;;7.00;99.90;;;;;;5092868;28;20337;-88
2023/11/13 00:44:06;;;;;;;9.48;7.25;;;7.00;99.90;;;;;;5095303;28;20081;-88
2023/11/13 00:46:32;;;;;;;10.90;7.72;;;7.00;99.90;;;;;;5095441;28;20020;-89
2023/11/13 00:48:58;;;;;;;9.65;8.05;;;7.00;99.90;;;;;;5095891;28;20024;-89
2023/11/13 00:51:26;;;;;;;11.63;8.63;;;7.00;99.90;;;;;;5087971;28;20025;-88
2023/11/13 00:53:52;;;;;;;11.20;8.25;;;7.00;99.90;;;;;;5061455;28;20053;-89
2023/11/13 00:56:18;;;;;;;9.52;8.00;;;7.00;99.90;;;;;;5077634;28;20032;-90
2023/11/13 00:58:44;;;;;;;12.70;8.30;;;7.00;99.90;;;;;;5059002;28;20025;-89
2023/11/13 01:01:14;;;;;;;10.27;7.93;;;7.00;99.90;;;;;;5075925;28;20357;-89
2023/11/13 01:03:42;;;;;;;10.63;8.30;;;7.00;99.90;;;;;;5095092;28;20050;-89
2023/11/13 01:06:14;;;;;;;10.65;7.78;;;7.00;99.90;;;;;;5095744;28;20020;-89
2023/11/13 01:08:42;;;;;;;11.55;8.10;;;7.00;99.90;;;;;;5095608;28;20052;-89
2023/11/13 01:11:07;;;;;;;11.40;8.10;;;7.00;99.90;;;;;;5095231;28;20043;-89
2023/11/13 01:13:36;;;;;;;10.82;7.40;;;7.00;99.90;;;;;;5095101;28;20501;-90
2023/11/13 01:16:02;;;;;;;12.23;8.02;;;7.00;99.90;;;;;;5094087;28;20053;-90
2023/11/13 01:18:28;;;;;;;11.48;7.88;;;7.00;99.90;;;;;;5095041;28;20020;-90
2023/11/13 01:20:54;;;;;;;12.38;8.30;;;7.00;99.90;;;;;;5094978;28;20046;-89
2023/11/13 01:23:20;;;;;;;12.95;7.45;;;7.00;99.90;;;;;;5090118;28;20443;-90
2023/11/13 01:25:46;;;;;;;12.90;8.05;;;7.00;99.90;;;;;;5074863;28;20109;-89
2023/11/13 01:28:17;;;;;;;12.15;8.10;;;7.00;99.90;;;;;;5075142;28;20037;-88
2023/11/13 01:30:42;;;;;;;10.63;7.68;;;7.00;99.90;;;;;;5080755;28;20024;-89
2023/11/13 01:33:08;;;;;;;9.82;7.50;;;7.00;99.90;;;;;;5078334;28;20031;-89
2023/11/13 01:35:34;;;;;;;12.55;8.30;;;7.00;99.90;;;;;;5094677;28;20020;-90
2023/11/13 01:37:59;;;;;;;10.88;7.85;;;7.00;99.90;;;;;;5078485;28;20051;-90
2023/11/13 01:40:25;;;;;;;10.13;7.85;;;7.00;99.90;;;;;;5095039;28;20091;-89
2023/11/13 01:42:51;;;;;;;11.65;8.02;;;6.90;99.90;;;;;;5095561;28;20454;-89
2023/11/13 01:45:17;;;;;;;10.10;8.13;;;6.90;99.90;;;;;;5093827;28;20027;-89
2023/11/13 01:47:46;;;;;;;8.75;7.60;;;7.00;99.90;;;;;;5087911;28;20008;-88
2023/11/13 01:50:12;;;;;;;8.75;7.28;;;6.90;99.90;;;;;;5098599;28;20016;-89
2023/11/13 01:52:40;;;;;;;10.57;8.05;;;6.90;99.90;;;;;;5114543;28;20047;-88
2023/11/13 01:55:09;;;;;;;10.95;7.30;;;6.90;99.90;;;;;;5118249;28;20031;-88
2023/11/13 01:57:36;;;;;;;10.05;7.85;;;6.90;99.90;;;;;;5101553;28;20020;-89
2023/11/13 02:00:07;;;;;;;11.52;8.02;;;6.90;99.90;;;;;;5095931;28;20035;-89
2023/11/13 02:02:34;;;;;;;10.00;8.05;;;7.00;99.90;;;;;;5094779;28;20371;-88
2023/11/13 02:05:00;;;;;;;11.88;8.02;;;7.00;99.90;;;;;;5074210;28;20020;-90
2023/11/13 02:07:26;;;;;;;11.88;8.23;;;6.90;99.90;;;;;;5057567;28;20034;-89
2023/11/13 02:09:52;;;;;;;11.57;8.25;;;7.00;99.90;;;;;;5065071;28;20052;-89
2023/11/13 02:12:19;;;;;;;10.73;8.60;;;6.90;99.90;;;;;;5074198;28;20029;-89
2023/11/13 02:14:45;;;;;;;11.23;7.75;;;7.00;99.90;;;;;;5064735;28;20434;-90
2023/11/13 02:17:11;;;;;;;10.10;8.13;;;7.00;99.90;;;;;;5093647;28;20040;-89
2023/11/13 02:19:37;;;;;;;13.10;8.40;;;7.00;99.90;;;;;;5095045;28;20095;-86
2023/11/13 02:22:04;;;;;;;11.85;7.95;;;7.00;99.90;;;;;;5092813;28;20020;-89
2023/11/13 02:24:30;;;;;;;12.82;8.50;;;7.00;99.90;;;;;;5078326;28;20049;-90
2023/11/13 02:26:57;;;;;;;9.63;7.70;;;7.10;99.90;;;;;;5093874;28;20028;-89
2023/11/13 02:29:23;;;;;;;10.90;8.05;;;7.10;99.90;;;;;;5073860;28;20036;-90
2023/11/13 02:31:52;;;;;;;10.68;8.10;;;7.10;99.90;;;;;;5090214;28;20029;-89
2023/11/13 02:34:21;;;;;;;11.02;7.60;;;7.10;99.90;;;;;;5094339;28;20021;-88
2023/11/13 02:36:49;;;;;;;10.52;6.88;;;7.10;99.90;;;;;;5089190;28;20056;-89
2023/11/13 02:39:21;;;;;;;9.10;6.85;;;7.10;99.90;;;;;;5079406;28;20448;-89
2023/11/13 02:41:47;;;;;;;11.65;7.47;;;7.20;99.90;;;;;;5073795;28;20024;-90
2023/11/13 02:44:14;;;;;;;9.80;6.93;;;7.20;99.90;;;;;;5060044;28;20040;-89
2023/11/13 02:46:43;;;;;;;9.90;7.13;;;7.20;99.90;;;;;;5094906;28;20024;-87
2023/11/13 02:49:08;;;;;;;9.15;7.05;;;7.20;99.90;;;;;;5092790;28;20020;-88
2023/11/13 02:51:34;;;;;;;8.95;6.95;;;7.20;99.90;;;;;;5108214;28;20019;-90
2023/11/13 02:54:00;;;;;;;9.98;7.80;;;7.20;99.90;;;;;;5075877;28;20052;-89
2023/11/13 02:56:28;;;;;;;10.90;7.55;;;7.20;99.90;;;;;;5082352;28;20078;-90
2023/11/13 02:58:56;;;;;;;9.05;6.85;;;7.30;99.90;;;;;;5093764;28;20027;-90
2023/11/13 03:01:21;;;;;;;9.52;7.22;;;7.30;99.90;;;;;;5093747;28;20020;-88
2023/11/13 03:03:47;;;;;;;8.52;6.70;;;7.30;99.90;;;;;;5076771;28;20486;-90
2023/11/13 03:06:13;;;;;;;8.95;7.47;;;7.30;99.90;;;;;;5076151;28;20035;-89
2023/11/13 03:08:41;;;;;;;8.77;6.90;;;7.30;99.90;;;;;;5066008;28;20032;-90
2023/11/13 03:11:08;;;;;;;10.30;6.55;;;7.30;99.90;;;;;;5058107;28;20035;-90
2023/11/13 03:13:34;;;;;;;10.95;6.90;;;7.30;99.90;;;;;;5082284;28;20028;-89
2023/11/13 03:15:59;;;;;;;10.93;7.35;;;7.30;99.90;;;;;;5115626;28;20057;-88
2023/11/13 03:18:25;;;;;;;10.18;7.05;;;7.40;99.90;;;;;;5101040;28;20016;-90
2023/11/13 03:20:51;;;;;;;12.27;7.15;;;7.30;99.90;;;;;;5081888;28;20036;-89
2023/11/13 03:23:16;;;;;;;8.85;7.15;;;7.40;99.90;;;;;;5093633;28;20031;-89
2023/11/13 03:25:42;;;;;;;10.10;6.70;;;7.40;99.90;;;;;;5074347;28;20052;-89
2023/11/13 03:28:10;;;;;;;9.10;6.75;;;7.40;99.90;;;;;;5085715;28;20089;-90
2023/11/13 03:30:37;;;;;;;10.32;7.35;;;7.40;99.90;;;;;;5077149;28;20055;-90
2023/11/13 03:33:03;;;;;;;9.27;7.03;;;7.40;99.90;;;;;;5093203;28;20028;-89
2023/11/13 03:35:29;;;;;;;9.68;7.07;;;7.50;99.90;;;;;;5076780;28;20051;-88
2023/11/13 03:37:56;;;;;;;9.48;6.85;;;7.50;99.90;;;;;;5093008;28;20059;-89
2023/11/13 03:40:21;;;;;;;8.88;6.63;;;7.50;99.90;;;;;;5058298;28;20044;-90
2023/11/13 03:42:47;;;;;;;9.43;6.47;;;7.50;99.90;;;;;;5074648;28;20025;-89
2023/11/13 03:45:13;;;;;;;7.55;6.63;;;7.50;99.90;;;;;;5072763;28;20032;-88
2023/11/13 03:47:38;;;;;;;7.60;6.30;;;7.50;99.90;;;;;;5073637;28;20093;-90
2023/11/13 03:50:06;;;;;;;9.02;6.50;;;7.50;99.90;;;;;;5096908;28;20024;-89
2023/11/13 03:52:32;;;;;;;9.88;6.80;;;7.60;99.90;;;;;;5096616;28;20024;-89
2023/11/13 03:54:58;;;;;;;8.75;6.78;;;7.60;99.90;;;;;;5096713;28;20023;-89
2023/11/13 03:57:23;;;;;;;9.85;6.53;;;7.60;99.90;;;;;;5080006;28;20035;-90
2023/11/13 03:59:49;;;;;;;8.35;6.38;;;7.60;99.90;;;;;;5063200;28;20033;-89
2023/11/13 04:02:15;;;;;;;9.43;6.75;;;7.60;99.90;;;;;;5084289;28;20021;-89
2023/11/13 04:04:44;;;;;;;9.80;6.75;;;7.60;99.90;;;;;;5076905;28;20046;-88
2023/11/13 04:07:10;;;;;;;9.13;6.97;;;7.60;99.90;;;;;;5063964;28;20039;-89
2023/11/13 04:09:36;;;;;;;9.98;6.38;;;7.60;99.90;;;;;;5096524;28;20024;-90
2023/11/13 04:12:02;;;;;;;10.13;6.65;;;7.70;99.90;;;;;;5091347;28;20097;-90
2023/11/13 04:14:28;;;;;;;10.38;6.20;;;7.70;99.90;;;;;;5096453;28;20028;-90
2023/11/13 04:16:54;;;;;;;8.70;6.30;;;7.70;99.90;;;;;;5092681;28;20518;-89
2023/11/13 04:19:22;;;;;;;9.10;6.40;;;7.70;99.90;;;;;;5089250;28;20016;-90
2023/11/13 04:21:48;;;;;;;7.95;6.20;;;7.80;99.90;;;;;;5095139;28;20059;-89
2023/11/13 04:24:17;;;;;;;7.30;5.90;;;7.80;99.90;;;;;;5076789;28;20049;-90
2023/11/13 04:26:43;;;;;;;8.95;6.50;;;7.80;99.90;;;;;;5096479;28;20077;-89
2023/11/13 04:29:11;;;;;;;10.27;6.55;;;7.90;99.90;;;;;;5092185;28;20526;-89
2023/11/13 04:31:37;;;;;;;8.75;6.35;;;7.90;99.90;;;;;;5079609;28;20020;-90
2023/11/13 04:34:05;;;;;;;11.25;6.65;;;7.90;99.90;;;;;;5059748;28;20429;-88
2023/11/13 04:36:32;;;;;;;7.57;5.85;;;7.90;99.90;;;;;;5085510;28;20119;-89
2023/11/13 04:38:58;;;;;;;8.90;6.15;;;7.90;99.90;;;;;;5070720;28;20024;-90
2023/11/13 04:41:24;;;;;;;7.70;5.95;;;7.90;99.90;;;;;;5092212;28;20032;-89
2023/11/13 04:43:49;;;;;;;7.60;6.47;;;8.00;99.90;;;;;;5091738;28;20479;-90
2023/11/13 04:46:15;;;;;;;9.18;7.07;;;8.00;99.90;;;;;;5117411;28;20017;-89
2023/11/13 04:48:41;;;;;;;11.63;6.68;;;8.00;99.90;;;;;;5108520;28;20019;-89
2023/11/13 04:51:07;;;;;;;8.48;6.55;;;8.00;99.90;;;;;;5115139;28;20105;-91
2023/11/13 04:53:33;;;;;;;9.35;6.38;;;8.00;99.90;;;;;;5096034;28;20048;-89
2023/11/13 04:56:01;;;;;;;9.55;6.80;;;8.00;99.90;;;;;;5096453;28;20426;-90
2023/11/13 04:58:27;;;;;;;10.10;6.35;;;8.00;99.90;;;;;;5093444;28;20131;-89
2023/11/13 05:00:53;;;;;;;10.65;6.72;;;8.00;99.90;;;;;;5082514;28;20026;-89
2023/11/13 05:03:19;;;;;;;10.02;6.22;;;8.00;99.90;;;;;;5077046;28;20118;-90
2023/11/13 05:05:45;;;;;;;9.75;6.63;;;8.00;99.90;;;;;;5078986;28;20032;-89
2023/11/13 05:08:11;;;;;;;8.70;6.22;;;8.10;99.90;;;;;;5065982;28;20063;-88
2023/11/13 05:10:36;;;;;;;8.10;6.60;;;8.10;99.90;;;;;;5098894;28;20026;-89
2023/11/13 05:13:02;;;;;;;8.70;6.30;;;8.10;99.90;;;;;;5085062;28;20027;-88
2023/11/13 05:15:29;;;;;;;8.50;6.43;;;8.10;99.90;;;;;;5101294;28;20051;-90
2023/11/13 05:17:55;;;;;;;8.05;6.53;;;8.10;99.90;;;;;;5105287;28;20027;-90
2023/11/13 05:20:20;;;;;;;7.30;5.97;;;8.10;99.90;;;;;;5096007;28;20115;-89
2023/11/13 05:22:48;;;;;;;6.97;5.88;;;8.20;99.90;;;;;;5096099;28;20028;-89
2023/11/13 05:25:17;;;;;;;8.52;6.35;;;8.20;99.90;;;;;;5075668;28;20384;-90
2023/11/13 05:27:42;;;;;;;9.57;6.13;;;8.20;99.90;;;;;;5076538;28;20058;-89
2023/11/13 05:30:08;;;;;;;9.07;6.43;;;8.20;99.90;;;;;;5086273;28;20028;-89
2023/11/13 05:32:34;;;;;;;8.32;6.25;;;8.20;99.90;;;;;;5060354;28;20078;-88
2023/11/13 05:35:03;;;;;;;9.23;6.35;;;8.20;99.90;;;;;;5077812;28;20051;-88
2023/11/13 05:37:28;;;;;;;8.10;6.30;;;8.20;99.90;;;;;;5074564;28;20028;-89
2023/11/13 05:39:54;;;;;;;8.65;6.55;;;8.20;99.90;;;;;;5075532;28;20383;-88
2023/11/13 05:42:23;;;;;;;8.77;6.32;;;8.30;99.90;;;;;;5080235;28;20051;-89
2023/11/13 05:44:49;;;;;;;8.75;6.60;;;8.30;99.90;;;;;;5074623;28;20112;-89
2023/11/13 05:47:15;;;;;;;8.18;5.82;;;8.30;99.90;;;;;;5093808;28;20020;-90
2023/11/13 05:49:41;;;;;;;8.93;6.65;;;8.30;99.90;;;;;;5078108;28;20423;-89
2023/11/13 05:52:07;;;;;;;7.85;6.50;;;8.30;99.90;;;;;;5095158;28;20035;-90
2023/11/13 05:54:33;;;;;;;9.38;6.03;;;8.30;99.90;;;;;;5077957;28;20044;-89
2023/11/13 05:56:59;;;;;;;9.23;6.55;;;8.30;99.90;;;;;;5094517;28;20030;-90
2023/11/13 05:59:24;;;;;;;9.05;6.53;;;8.30;99.90;;;;;;5095825;28;20023;-90
2023/11/13 06:01:50;;;;;;;10.45;6.30;;;8.30;99.90;;;;;;5093726;28;20016;-89
2023/11/13 06:04:16;;;;;;;8.48;6.85;;;8.30;99.90;;;;;;5094544;28;20111;-90
2023/11/13 06:06:45;;;;;;;9.50;6.82;;;8.40;99.90;;;;;;5095452;28;20036;-89
2023/11/13 06:09:11;;;;;;;10.52;7.57;;;8.40;99.90;;;;;;5096026;28;20024;-89
2023/11/13 06:11:38;;;;;;;9.35;7.60;;;8.40;99.90;;;;;;5108941;28;20016;-90
2023/11/13 06:14:07;;;;;;;10.10;7.43;;;8.40;99.90;;;;;;5081556;28;20027;-88
2023/11/13 06:16:33;;;;;;;9.18;6.70;;;8.40;99.90;;;;;;5098207;28;20103;-89
2023/11/13 06:18:59;;;;;;;11.32;7.97;;;8.40;99.90;;;;;;5103696;28;20025;-90
2023/11/13 06:21:25;;;;;;;10.68;7.68;;;8.40;99.90;;;;;;5080868;28;20029;-88
2023/11/13 06:23:51;;;;;;;9.95;7.38;;;8.50;99.90;;;;;;5060476;28;20460;-89
2023/11/13 06:26:17;;;;;;;9.90;7.65;;;8.40;99.90;;;;;;5093987;28;20021;-88
2023/11/13 06:28:42;;;;;;;12.15;8.35;;;8.50;99.90;;;;;;5094554;28;20023;-90
2023/11/13 06:31:11;;;;;;;9.65;7.50;;;8.40;99.90;;;;;;5077159;28;20028;-88
2023/11/13 06:33:37;;;;;;;9.70;7.47;;;8.50;99.90;;;;;;5086496;28;20024;-89
2023/11/13 06:36:09;;;;;;;10.88;8.07;;;8.50;99.90;;;;;;5075033;28;20499;-89
2023/11/13 06:38:36;;;;;;;11.05;9.02;;;8.50;99.90;;;;;;5088043;28;20033;-89
2023/11/13 06:41:03;;;;;;;10.98;8.35;;;8.50;99.90;;;;;;5057526;28;20027;-88
2023/11/13 06:43:29;;;;;;;12.10;8.25;;;8.50;99.90;;;;;;5088086;28;20023;-89
2023/11/13 06:45:55;;;;;;;11.15;9.02;;;8.60;99.90;;;;;;5076882;28;20025;-90
2023/11/13 06:48:21;;;;;;;11.05;8.52;;;8.60;99.90;;;;;;5091411;28;20074;-89
2023/11/13 06:50:47;;;;;;;11.40;8.65;;;8.60;99.90;;;;;;5074266;28;20051;-89
2023/11/13 06:53:13;;;;;;;13.30;9.13;;;8.60;99.90;;;;;;5082029;28;20045;-90
2023/11/13 06:55:42;;;;;;;10.75;8.80;;;8.60;99.90;;;;;;5057567;28;20049;-89
2023/11/13 06:58:10;;;;;;;11.80;8.48;;;8.70;99.90;;;;;;5089574;28;20028;-88
2023/11/13 07:00:35;;;;;;;12.98;8.95;;;8.70;99.90;;;;;;5093501;28;20110;-89
2023/11/13 07:03:02;;;;;;;12.20;8.95;;;8.80;99.90;;;;;;5075272;28;20040;-89
2023/11/13 07:05:28;;;;;;;11.52;8.95;;;8.70;99.90;;;;;;5072740;28;20056;-89
2023/11/13 07:07:55;;;;;;;10.27;8.77;;;8.70;99.90;;;;;;5073303;28;20415;-89
2023/11/13 07:10:21;;;;;;;14.68;9.15;;;8.70;99.90;;;;;;5107508;28;20429;-89
2023/11/13 07:12:49;;;;;;;12.63;9.15;;;8.80;99.90;;;;;;5093775;28;20119;-88
2023/11/13 07:15:15;;;;;;;11.27;8.93;;;8.80;99.90;;;;;;5093001;28;20027;-90
2023/11/13 07:17:41;;;;;;;13.27;9.85;;;8.80;99.90;;;;;;5093295;28;20033;-89
2023/11/13 07:20:09;;;;;;;12.07;9.00;;;8.80;99.90;;;;;;5071414;28;20411;-89
2023/11/13 07:22:36;;;;;;;13.18;9.48;;;8.90;99.90;;;;;;5089512;28;20024;-90
2023/11/13 07:25:02;;;;;;;13.82;10.27;;;8.90;99.90;;;;;;5094854;28;20024;-90
2023/11/13 07:27:30;;;;;;;13.32;9.90;;;8.90;99.90;;;;;;5097330;28;20566;-91
2023/11/13 07:29:58;;;;;;;13.27;10.18;;;9.00;99.90;;;;;;5097393;28;20056;-89
2023/11/13 07:32:25;;;;;;;13.32;9.40;;;9.00;99.90;;;;;;5095268;28;20024;-90
2023/11/13 07:34:53;;;;;;;13.18;9.30;;;9.00;99.90;;;;;;5097598;28;20427;-90
2023/11/13 07:37:19;;;;;;;13.77;9.20;;;9.00;99.90;;;;;;5097462;28;20024;-90
2023/11/13 07:39:51;;;;;;;12.55;8.80;;;9.00;99.90;;;;;;5099550;28;20096;-89
2023/11/13 07:42:20;;;;;;;15.73;9.55;;;9.10;99.90;;;;;;5120730;28;20016;-88
2023/11/13 07:44:49;;;;;;;11.13;8.57;;;9.10;99.90;;;;;;5121243;28;20008;-90
2023/11/13 07:47:18;;;;;;;12.55;9.25;;;9.10;99.90;;;;;;5120589;28;20008;-89
2023/11/13 07:49:44;;;;;;;11.32;8.75;;;9.20;99.90;;;;;;5109763;28;20024;-90
2023/11/13 07:52:15;;;;;;;10.80;8.48;;;9.10;99.90;;;;;;5095339;28;20020;-90
2023/11/13 07:54:41;;;;;;;12.27;8.23;;;9.20;99.90;;;;;;5090202;28;20036;-91
2023/11/13 07:57:09;;;;;;;11.13;8.40;;;9.20;99.90;;;;;;5098146;28;20111;-91
2023/11/13 07:59:36;;;;;;;8.75;7.43;;;9.20;99.90;;;;;;5096550;28;20032;-91
2023/11/13 08:02:03;;;;;;;9.55;7.47;;;9.20;99.90;;;;;;5096527;28;20048;-91
2023/11/13 08:04:32;;;;;;;9.00;7.38;;;9.20;99.90;;;;;;5097643;28;20106;-90
2023/11/13 08:06:58;;;;;;;9.07;7.43;;;9.20;99.90;;;;;;5093596;28;20436;-91
2023/11/13 08:09:24;;;;;;;9.13;6.97;;;9.30;99.90;;;;;;5080182;28;20029;-90
2023/11/13 08:11:49;;;;;;;10.23;7.15;;;9.30;99.90;;;;;;5076354;28;20025;-90
2023/11/13 08:14:15;;;;;;;8.70;7.07;;;9.30;99.90;;;;;;5060029;28;20024;-90
2023/11/13 08:16:41;;;;;;;10.00;6.28;;;9.30;99.90;;;;;;5059169;28;20056;-91
2023/11/13 08:19:07;;;;;;;8.52;6.53;;;9.40;99.90;;;;;;5077261;28;20116;-92
2023/11/13 08:21:33;;;;;;;7.45;6.00;;;9.40;99.90;;;;;;5065976;28;20032;-89
2023/11/13 08:24:00;;;;;;;8.45;6.13;;;9.40;99.90;;;;;;5096494;28;20119;-90
2023/11/13 08:26:28;;;;;;;7.10;5.63;;;9.40;99.90;;;;;;5080898;28;20024;-90
2023/11/13 08:28:55;;;;;;;8.65;5.57;;;9.50;99.90;;;;;;5096451;28;20024;-91
2023/11/13 08:31:27;;;;;;;8.02;5.70;;;9.50;99.90;;;;;;5083324;28;20028;-91
2023/11/13 08:33:56;;;;;;;6.55;5.30;;;9.60;99.90;;;;;;5095260;28;20031;-90
2023/11/13 08:36:23;;;;;;;5.90;4.90;;;9.60;99.90;;;;;;5095934;28;20036;-90
2023/11/13 08:38:52;;;;;;;5.95;5.10;;;9.60;99.90;;;;;;5095841;28;20024;-90
2023/11/13 08:41:21;;;;;;;6.20;5.15;;;9.70;99.90;;;;;;5068397;28;20036;-92
2023/11/13 08:43:48;;;;;;;5.90;4.38;;;9.70;99.90;;;;;;5059894;28;20030;-91
2023/11/13 08:46:16;;;;;;;5.70;4.65;;;9.70;99.90;;;;;;5086103;28;20031;-90
2023/11/13 08:48:42;;;;;;;5.18;4.32;;;9.80;99.90;;;;;;5096149;28;20024;-91
2023/11/13 08:51:08;;;;;;;8.32;4.78;;;9.80;99.90;;;;;;5094354;28;20361;-90
2023/11/13 08:53:42;;;;;;;4.38;3.63;;;9.90;99.90;;;;;;5087664;28;20045;-91
2023/11/13 08:56:17;;;;;;;6.07;3.95;;;9.90;99.90;;;;;;5090019;28;20035;-90
2023/11/13 08:58:43;;;;;;;5.00;4.00;;;9.90;99.90;;;;;;5090988;28;20040;-90
2023/11/13 09:01:09;;;;;;;5.55;3.95;;;10.00;99.90;;;;;;5082632;28;20457;-90
2023/11/13 09:03:39;;;;;;;4.50;3.20;;;10.00;99.90;;;;;;5062270;28;20074;-90
2023/11/13 09:06:18;;;;;;;;;;;;;;;;;;;;;
2023/11/13 09:08:45;;;;;;;4.38;3.33;;;10.10;99.90;;;;;;5096028;28;20027;-90
2023/11/13 09:11:16;;;;;;;5.40;3.50;;;10.20;99.90;;;;;;5078408;28;20037;-90
2023/11/13 09:13:42;;;;;;;5.00;3.30;;;10.20;99.90;;;;;;5099470;28;20040;-89
2023/11/13 09:16:10;;;;;;;5.05;3.15;;;10.30;99.90;;;;;;5116545;28;20028;-90
2023/11/13 09:18:36;;;;;;;7.45;3.72;;;10.30;99.90;;;;;;5119965;28;20012;-89
2023/11/13 09:21:04;;;;;;;5.82;3.25;;;10.40;99.90;;;;;;5116119;28;20044;-90
2023/11/13 09:23:37;;;;;;;5.25;3.05;;;10.40;99.90;;;;;;5089590;28;20035;-90
2023/11/13 09:26:04;;;;;;;5.53;2.97;;;10.40;99.90;;;;;;5095230;28;20020;-90
2023/11/13 09:28:30;;;;;;;4.07;2.75;;;10.50;99.90;;;;;;5086746;28;20032;-91
2023/11/13 09:30:55;;;;;;;6.60;3.28;;;10.60;99.90;;;;;;5086215;28;20032;-91
2023/11/13 09:33:21;;;;;;;4.47;2.58;;;10.60;99.90;;;;;;5092941;28;20056;-89
2023/11/13 09:35:48;;;;;;;5.45;2.53;;;10.60;99.90;;;;;;5080215;28;20055;-90
2023/11/13 09:38:13;;;;;;;3.55;2.20;;;10.70;99.90;;;;;;5074880;28;20028;-91
2023/11/13 09:40:42;;;;;;;2.90;1.80;;;10.70;99.90;;;;;;5091299;28;20046;-92
2023/11/13 09:43:12;;;;;;;6.53;2.55;;;10.70;99.90;;;;;;5087191;28;20028;-89
2023/11/13 09:45:46;;;;;;;4.80;1.88;;;10.80;99.90;;;;;;5094505;28;20476;-91
2023/11/13 09:48:20;;;;;;;4.13;1.88;;;10.80;99.90;;;;;;5082352;28;20093;-88
2023/11/13 09:50:48;;;;;;;2.72;1.52;;;10.80;99.90;;;;;;5082322;28;20349;-91
2023/11/13 09:53:19;;;;;;;4.15;2.10;;;10.90;99.90;;;;;;5093053;28;20044;-90
2023/11/13 09:55:48;;;;;;;;;;;10.90;99.90;;;;;;5086535;28;20071;-89
2023/11/13 09:58:14;;;;;;;3.75;1.35;;;10.90;99.90;;;;;;5078674;28;19943;-89
2023/11/13 10:00:41;;;;;;;6.65;1.90;;;10.90;99.90;;;;;;5079507;28;20435;-89
2023/11/13 10:03:14;;;;;;;4.00;2.33;;;11.00;99.90;;;;;;5074196;28;20035;-88
2023/11/13 10:05:43;;;;;;;3.72;1.30;;;11.00;99.90;;;;;;5085550;28;20027;-90
2023/11/13 10:08:11;;;;;;;3.28;1.35;;;11.00;99.90;;;;;;5089664;28;20020;-89
2023/11/13 10:10:40;;;;;;;4.25;1.50;;;11.00;99.90;;;;;;5074056;28;20521;-90
2023/11/13 10:13:09;;;;;;;3.30;1.45;;;11.10;99.90;;;;;;5078866;28;20456;-90
2023/11/13 10:15:36;;;;;;;4.45;1.80;;;11.10;99.90;;;;;;5094279;28;20061;-90
2023/11/13 10:18:14;;;;;;;5.43;1.80;;;11.10;99.90;;;;;;5094519;28;20031;-90
2023/11/13 10:20:49;;;;;;;3.85;1.30;;;11.10;99.90;;;;;;5063973;28;20066;-91
2023/11/13 10:23:16;;;;;;;3.35;1.20;;;11.20;99.90;;;;;;5091479;28;20028;-89
2023/11/13 10:25:50;;;;;;;2.50;1.58;;;11.20;99.90;;;;;;5093587;28;20024;-89
2023/11/13 10:28:24;;;;;;;3.60;1.83;;;11.20;99.90;;;;;;5093870;28;20024;-88
2023/11/13 10:31:00;;;;;;;2.38;1.33;;;11.20;99.90;;;;;;5094341;28;20379;-89
2023/11/13 10:33:27;;;;;;;3.25;1.42;;;11.20;99.90;;;;;;5073439;28;20050;-88
2023/11/13 10:35:54;;;;;;;3.75;1.42;;;11.20;99.90;;;;;;5077584;28;20047;-90
2023/11/13 10:38:21;;;;;;;2.20;1.17;;;11.20;99.90;;;;;;5082805;28;20033;-90
2023/11/13 10:40:55;;;;;;;2.28;1.13;;;11.20;99.90;;;;;;5075738;28;20032;-90
2023/11/13 10:43:45;;;;;;;2.90;1.08;;;11.20;99.90;;;;;;5092333;28;20048;-89
2023/11/13 10:46:25;;;;;;;3.00;1.00;;;11.20;99.90;;;;;;5107751;28;20024;-90
2023/11/13 10:48:53;;;;;;;3.03;0.90;;;11.20;99.90;;;;;;5113835;28;20012;-92
2023/11/13 10:51:19;;;;;;;2.63;0.98;;;11.30;99.90;;;;;;5129927;28;20004;-90
2023/11/13 10:53:47;;;;;;;2.60;0.93;;;11.30;99.90;;;;;;5100175;28;20078;-91
2023/11/13 10:56:14;;;;;;;2.67;1.00;;;11.30;99.90;;;;;;5097204;28;20034;-89
2023/11/13 10:58:41;;;;;;;1.75;0.95;;;11.30;99.90;;;;;;5094086;28;20048;-91
2023/11/13 11:01:10;;;;;;;1.65;0.77;;;11.30;99.90;;;;;;5094101;28;20020;-89
2023/11/13 11:03:40;;;;;;;2.95;1.10;;;11.30;99.90;;;;;;5093664;28;20028;-90
2023/11/13 11:06:11;;;;;;;2.03;0.93;;;11.30;99.90;;;;;;5091477;28;20016;-91
2023/11/13 11:08:38;;;;;;;1.20;0.73;;;11.30;99.90;;;;;;5101792;28;20028;-90
2023/11/13 11:11:06;;;;;;;1.25;0.70;;;11.30;99.90;;;;;;5078247;28;20108;-91
2023/11/13 11:13:37;;;;;;;1.58;1.02;;;11.30;99.90;;;;;;5074309;28;20028;-92
2023/11/13 11:16:23;;;;;;;1.83;1.13;;;11.30;99.90;;;;;;5088538;28;20024;-89
2023/11/13 11:19:27;;;;;;;1.33;0.82;;;11.30;99.90;;;;;;5109686;28;20036;-90
2023/11/13 11:22:01;;;;;;;1.00;0.60;;;11.30;99.90;;;;;;5116212;28;20004;-91
2023/11/13 11:24:35;;;;;;;2.25;0.90;;;11.30;99.90;;;;;;5116127;28;20015;-90
2023/11/13 11:27:01;;;;;;;3.00;0.80;;;11.40;99.90;;;;;;5110205;28;20176;-89
2023/11/13 11:29:34;;;;;;;1.70;0.70;;;11.30;99.90;;;;;;5078624;28;20508;-88
2023/11/13 11:32:15;;;;;;;1.75;0.85;;;11.40;99.90;;;;;;5093899;28;20031;-89
2023/11/13 11:34:48;;;;;;;3.05;1.00;;;11.40;99.90;;;;;;5093690;28;20080;-90
2023/11/13 11:37:15;;;;;;;1.20;0.68;;;11.40;99.90;;;;;;5093975;28;20471;-90
2023/11/13 11:39:51;;;;;;;1.23;0.80;;;11.40;99.90;;;;;;5076899;28;20039;-91
2023/11/13 11:42:23;;;;;;;1.65;1.00;;;11.50;99.90;;;;;;5074759;28;20052;-90
2023/11/13 11:45:13;;;;;;;3.65;1.10;;;11.40;99.90;;;;;;5081072;28;20020;-89
2023/11/13 11:47:39;;;;;;;1.90;1.10;;;11.50;99.90;;;;;;5075197;28;20036;-91
2023/11/13 11:50:12;;;;;;;2.13;1.17;;;11.50;99.90;;;;;;5073758;28;20032;-90
2023/11/13 11:53:04;;;;;;;2.42;1.30;;;11.60;99.90;;;;;;5077907;28;20020;-90
2023/11/13 11:55:30;;;;;;;;;;;11.60;99.90;;;;;;5079411;28;20036;-90
2023/11/13 11:57:56;;;;;;;1.45;1.00;;;11.60;99.90;;;;;;5091616;28;19908;-91
2023/11/13 12:00:26;;;;;;;2.75;1.38;;;11.60;99.90;;;;;;5074697;28;20446;-91
2023/11/13 12:02:53;;;;;;;3.13;1.75;;;11.60;99.90;;;;;;5086227;28;20027;-90
2023/11/13 12:05:19;;;;;;;2.58;1.60;;;11.70;99.90;;;;;;5073167;28;20025;-92
2023/11/13 12:07:54;;;;;;;4.05;1.83;;;11.70;99.90;;;;;;5089849;28;20033;-90
2023/11/13 12:10:21;;;;;;;3.30;1.60;;;11.80;99.90;;;;;;5095832;28;20088;-91
2023/11/13 12:12:47;;;;;;;5.18;1.73;;;11.80;99.90;;;;;;5097952;28;20024;-89
2023/11/13 12:15:14;;;;;;;4.93;2.25;;;11.90;99.90;;;;;;5098652;28;20020;-89
2023/11/13 12:17:41;;;;;;;3.13;1.90;;;11.90;99.90;;;;;;5100031;28;20020;-90
2023/11/13 12:20:09;;;;;;;3.38;1.73;;;11.90;99.90;;;;;;5119985;28;20019;-91
2023/11/13 12:22:35;;;;;;;3.53;2.10;;;12.00;99.90;;;;;;5120401;28;20015;-89
2023/11/13 12:25:06;;;;;;;5.40;1.90;;;12.00;99.90;;;;;;5120450;28;20008;-89
2023/11/13 12:27:34;;;;;;;3.10;2.10;;;12.10;99.90;;;;;;5120315;28;20028;-89
2023/11/13 12:30:13;;;;;;;4.72;1.90;;;12.10;99.90;;;;;;5111740;28;20020;-92
2023/11/13 12:32:39;;;;;;;3.30;1.98;;;12.20;99.90;;;;;;5081147;28;20029;-90
2023/11/13 12:35:05;;;;;;;5.57;2.08;;;12.20;99.90;;;;;;5096351;28;20034;-90
2023/11/13 12:37:31;;;;;;;5.07;2.40;;;12.20;99.90;;;;;;5095709;28;20414;-89
2023/11/13 12:40:03;;;;;;;8.20;2.90;;;12.30;99.90;;;;;;5091431;28;20111;-91
2023/11/13 12:42:30;;;;;;;5.60;2.83;;;12.30;99.90;;;;;;5079697;28;20391;-90
2023/11/13 12:44:57;;;;;;;4.90;1.90;;;12.30;99.90;;;;;;5083525;28;20452;-89
2023/11/13 12:47:24;;;;;;;4.85;2.30;;;12.40;99.90;;;;;;5095896;28;20020;-90
2023/11/13 12:49:50;;;;;;;4.75;2.03;;;12.40;99.90;;;;;;5095909;28;20126;-90
2023/11/13 12:52:18;;;;;;;4.35;1.98;;;12.50;99.90;;;;;;5095487;28;20089;-91
2023/11/13 12:54:49;;;;;;;5.93;2.13;;;12.50;99.90;;;;;;5078991;28;20051;-90